createdAt,value
2023-02-01T00:01:29.261Z,8.70
2023-02-01T00:03:56.479Z,8.70
2023-02-01T00:06:23.909Z,8.70
2023-02-01T00:08:55.267Z,8.80
2023-02-01T00:11:23.748Z,8.80
2023-02-01T00:13:51.557Z,8.80
2023-02-01T00:16:21.885Z,8.80
2023-02-01T00:18:51.991Z,8.80
2023-02-01T00:21:24.429Z,8.80
2023-02-01T00:23:51.695Z,8.90
2023-02-01T00:26:23.756Z,8.90
2023-02-01T00:28:51.050Z,8.90
2023-02-01T00:31:18.378Z,8.90
2023-02-01T00:33:48.984Z,8.90
2023-02-01T00:36:19.300Z,8.90
2023-02-01T00:38:46.840Z,8.90
2023-02-01T00:41:19.852Z,8.90
2023-02-01T00:43:48.264Z,8.90
2023-02-01T00:46:17.881Z,8.90
2023-02-01T00:48:45.571Z,8.90
2023-02-01T00:51:18.039Z,8.90
2023-02-01T00:53:45.673Z,8.80
2023-02-01T00:56:16.800Z,8.80
2023-02-01T00:58:45.891Z,8.80
2023-02-01T01:01:19.722Z,8.80
2023-02-01T01:03:58.976Z,8.80
2023-02-01T01:06:29.547Z,8.80
2023-02-01T01:08:59.290Z,8.70
2023-02-01T01:11:32.203Z,8.70
2023-02-01T01:14:01.087Z,8.70
2023-02-01T01:16:29.945Z,8.70
2023-02-01T01:19:00.623Z,8.70
2023-02-01T01:21:28.552Z,8.70
2023-02-01T01:24:00.488Z,8.70
2023-02-01T01:26:29.276Z,8.70
2023-02-01T01:28:58.501Z,8.70
2023-02-01T01:31:28.502Z,8.70
2023-02-01T01:33:57.870Z,8.70
2023-02-01T01:36:28.496Z,8.60
2023-02-01T01:38:57.981Z,8.70
2023-02-01T01:41:29.642Z,8.60
2023-02-01T01:44:00.036Z,8.50
2023-02-01T01:46:38.637Z,8.50
2023-02-01T01:49:27.039Z,8.50
2023-02-01T01:52:02.005Z,8.50
2023-02-01T01:54:38.447Z,8.50
2023-02-01T01:57:13.346Z,8.50
2023-02-01T01:59:45.601Z,8.50
2023-02-01T02:02:15.369Z,8.50
2023-02-01T02:04:45.639Z,8.50
2023-02-01T02:07:26.732Z,8.50
2023-02-01T02:10:00.496Z,8.40
2023-02-01T02:12:29.608Z,8.50
2023-02-01T02:14:58.590Z,8.50
2023-02-01T02:17:43.884Z,8.50
2023-02-01T02:20:14.209Z,8.50
2023-02-01T02:23:12.692Z,8.50
2023-02-01T02:25:58.429Z,8.60
2023-02-01T02:29:04.612Z,8.60
2023-02-01T02:32:15.192Z,8.60
2023-02-01T02:35:01.113Z,8.70
2023-02-01T02:37:31.116Z,8.70
2023-02-01T02:40:13.652Z,8.70
2023-02-01T02:43:30.114Z,8.70
2023-02-01T02:46:35.205Z,8.70
2023-02-01T02:49:12.405Z,8.70
2023-02-01T02:52:03.116Z,8.70
2023-02-01T02:54:55.090Z,8.70
2023-02-01T02:57:47.437Z,8.70
2023-02-01T03:00:38.094Z,8.70
2023-02-01T03:03:25.085Z,8.70
2023-02-01T03:05:55.563Z,8.70
2023-02-01T03:08:23.956Z,8.80
2023-02-01T03:11:06.488Z,8.70
2023-02-01T03:13:59.851Z,8.80
2023-02-01T03:16:37.940Z,8.80
2023-02-01T03:19:08.403Z,8.80
2023-02-01T03:21:43.909Z,8.80
2023-02-01T03:24:21.040Z,8.80
2023-02-01T03:26:57.766Z,8.80
2023-02-01T03:29:34.678Z,8.90
2023-02-01T03:32:02.295Z,8.90
2023-02-01T03:34:30.112Z,8.90
2023-02-01T03:37:03.197Z,8.90
2023-02-01T03:39:39.812Z,9.00
2023-02-01T03:42:15.993Z,9.00
2023-02-01T03:44:52.410Z,9.00
2023-02-01T03:47:28.224Z,9.00
2023-02-01T03:50:05.267Z,9.00
2023-02-01T03:52:46.648Z,9.10
2023-02-01T03:55:17.467Z,9.10
2023-02-01T03:58:04.019Z,9.10
2023-02-01T04:00:31.503Z,9.10
2023-02-01T04:02:58.860Z,9.10
2023-02-01T04:05:31.252Z,9.10
2023-02-01T04:08:01.137Z,9.10
2023-02-01T04:10:30.715Z,9.10
2023-02-01T04:12:58.354Z,9.10
2023-02-01T04:15:28.173Z,9.10
2023-02-01T04:17:55.504Z,9.10
2023-02-01T04:20:23.028Z,9.10
2023-02-01T04:22:50.484Z,9.10
2023-02-01T04:25:18.304Z,9.00
2023-02-01T04:27:45.653Z,9.00
2023-02-01T04:30:13.953Z,9.00
2023-02-01T04:32:41.500Z,9.00
2023-02-01T04:35:12.696Z,9.00
2023-02-01T04:37:40.031Z,9.00
2023-02-01T04:40:10.325Z,9.00
2023-02-01T04:42:37.622Z,9.00
2023-02-01T04:45:05.482Z,9.00
2023-02-01T04:47:32.763Z,9.00
2023-02-01T04:50:02.920Z,8.90
2023-02-01T04:52:32.956Z,8.90
2023-02-01T04:55:01.070Z,8.90
2023-02-01T04:57:28.365Z,8.90
2023-02-01T04:59:55.817Z,8.90
2023-02-01T05:02:23.112Z,8.90
2023-02-01T05:04:52.603Z,8.90
2023-02-01T05:07:20.862Z,8.90
2023-02-01T05:09:50.570Z,8.90
2023-02-01T05:12:38.832Z,8.90
2023-02-01T05:15:09.076Z,8.90
2023-02-01T05:17:36.367Z,8.90
2023-02-01T05:20:03.932Z,8.90
2023-02-01T05:22:31.181Z,8.80
2023-02-01T05:24:58.490Z,8.80
2023-02-01T05:27:25.825Z,8.80
2023-02-01T05:29:53.065Z,8.90
2023-02-01T05:32:23.359Z,8.80
2023-02-01T05:34:50.777Z,8.90
2023-02-01T05:37:20.553Z,8.90
2023-02-01T05:39:47.949Z,8.90
2023-02-01T05:42:15.504Z,8.90
2023-02-01T05:44:42.840Z,8.90
2023-02-01T05:47:10.566Z,8.90
2023-02-01T05:49:37.852Z,8.90
2023-02-01T05:52:05.359Z,9.00
2023-02-01T05:54:32.620Z,9.00
2023-02-01T05:56:59.944Z,9.00
2023-02-01T05:59:27.281Z,9.10
2023-02-01T06:01:57.138Z,9.00
2023-02-01T06:04:26.621Z,9.10
2023-02-01T06:06:56.307Z,9.10
2023-02-01T06:09:29.279Z,9.10
2023-02-01T06:11:56.831Z,9.10
2023-02-01T06:14:24.765Z,9.20
2023-02-01T06:16:52.019Z,9.20
2023-02-01T06:19:19.268Z,9.20
2023-02-01T06:21:46.681Z,9.20
2023-02-01T06:24:16.262Z,9.20
2023-02-01T06:26:43.608Z,9.20
2023-02-01T06:29:11.406Z,9.20
2023-02-01T06:31:38.829Z,9.20
2023-02-01T06:34:08.214Z,9.20
2023-02-01T06:36:35.633Z,9.20
2023-02-01T06:39:02.999Z,9.20
2023-02-01T06:41:30.277Z,9.20
2023-02-01T06:43:57.550Z,9.20
2023-02-01T06:46:27.173Z,9.20
2023-02-01T06:48:55.356Z,9.20
2023-02-01T06:51:25.428Z,9.20
2023-02-01T06:53:52.797Z,9.20
2023-02-01T06:56:20.692Z,9.30
2023-02-01T06:58:50.655Z,9.30
2023-02-01T07:01:20.956Z,9.30
2023-02-01T07:03:52.390Z,9.30
2023-02-01T07:06:19.883Z,9.30
2023-02-01T07:08:49.958Z,9.30
2023-02-01T07:11:18.691Z,9.30
2023-02-01T07:13:46.875Z,9.30
2023-02-01T07:16:16.794Z,9.30
2023-02-01T07:18:44.783Z,9.30
2023-02-01T07:21:14.988Z,9.30
2023-02-01T07:23:44.663Z,9.30
2023-02-01T07:26:14.087Z,9.30
2023-02-01T07:28:42.159Z,9.40
2023-02-01T07:31:16.408Z,9.40
2023-02-01T07:33:43.701Z,9.40
2023-02-01T07:36:17.317Z,9.40
2023-02-01T07:38:44.955Z,9.50
2023-02-01T07:41:14.796Z,9.50
2023-02-01T07:43:42.091Z,9.50
2023-02-01T07:46:10.913Z,9.50
2023-02-01T07:48:38.333Z,9.50
2023-02-01T07:51:10.277Z,9.50
2023-02-01T07:53:38.299Z,9.50
2023-02-01T07:56:15.741Z,9.60
2023-02-01T07:58:45.392Z,9.60
2023-02-01T08:01:25.383Z,9.60
2023-02-01T08:04:00.017Z,9.60
2023-02-01T08:06:32.036Z,9.60
2023-02-01T08:08:59.583Z,9.60
2023-02-01T08:11:27.946Z,9.60
2023-02-01T08:13:55.483Z,9.70
2023-02-01T08:16:24.343Z,9.70
2023-02-01T08:18:52.667Z,9.70
2023-02-01T08:21:23.505Z,9.70
2023-02-01T08:23:51.245Z,9.70
2023-02-01T08:26:26.930Z,9.70
2023-02-01T08:29:00.758Z,9.70
2023-02-01T08:31:32.531Z,9.70
2023-02-01T08:34:01.442Z,9.70
2023-02-01T08:36:30.624Z,9.80
2023-02-01T08:38:58.267Z,9.70
2023-02-01T08:41:28.252Z,9.80
2023-02-01T08:43:56.325Z,9.80
2023-02-01T08:46:24.003Z,9.80
2023-02-01T08:48:52.237Z,9.80
2023-02-01T08:51:23.873Z,9.80
2023-02-01T08:53:51.639Z,9.80
2023-02-01T08:56:23.467Z,9.80
2023-02-01T08:58:50.739Z,9.90
2023-02-01T09:01:18.872Z,9.80
2023-02-01T09:03:53.812Z,9.90
2023-02-01T09:06:21.087Z,9.90
2023-02-01T09:08:48.421Z,9.90
2023-02-01T09:11:18.115Z,9.90
2023-02-01T09:13:45.890Z,9.90
2023-02-01T09:16:13.531Z,9.90
2023-02-01T09:18:50.474Z,9.90
2023-02-01T09:21:28.507Z,9.90
2023-02-01T09:23:55.777Z,10.00
2023-02-01T09:26:32.028Z,9.90
2023-02-01T09:29:04.483Z,10.00
2023-02-01T09:31:31.959Z,9.90
2023-02-01T09:34:04.252Z,9.90
2023-02-01T09:36:31.561Z,9.90
2023-02-01T09:39:02.009Z,9.90
2023-02-01T09:42:23.773Z,9.90
2023-02-01T09:45:18.000Z,9.90
2023-02-01T09:47:53.787Z,10.00
2023-02-01T09:50:28.298Z,10.00
2023-02-01T09:53:03.763Z,10.00
2023-02-01T09:55:33.832Z,10.00
2023-02-01T09:58:04.810Z,10.00
2023-02-01T10:00:39.765Z,10.00
2023-02-01T10:03:13.150Z,10.00
2023-02-01T10:05:45.875Z,10.00
2023-02-01T10:08:13.062Z,10.00
2023-02-01T10:10:50.781Z,10.00
2023-02-01T10:13:46.283Z,10.00
2023-02-01T10:16:41.721Z,10.00
2023-02-01T10:19:40.962Z,10.00
2023-02-01T10:22:11.838Z,10.10
2023-02-01T10:25:02.195Z,10.10
2023-02-01T10:27:37.525Z,10.10
2023-02-01T10:30:17.433Z,10.10
2023-02-01T10:32:44.696Z,10.10
2023-02-01T10:35:19.354Z,10.10
2023-02-01T10:37:47.788Z,10.10
2023-02-01T10:40:25.590Z,10.10
2023-02-01T10:42:56.170Z,10.10
2023-02-01T10:45:26.118Z,10.10
2023-02-01T10:47:56.324Z,10.10
2023-02-01T10:50:58.710Z,10.10
2023-02-01T10:53:36.694Z,10.10
2023-02-01T10:56:09.261Z,10.20
2023-02-01T10:58:43.850Z,10.20
2023-02-01T11:01:19.324Z,10.20
2023-02-01T11:04:04.580Z,10.20
2023-02-01T11:06:40.242Z,10.20
2023-02-01T11:09:14.010Z,10.20
2023-02-01T11:11:47.415Z,10.30
2023-02-01T11:14:29.206Z,10.30
2023-02-01T11:17:01.156Z,10.30
2023-02-01T11:19:31.976Z,10.40
2023-02-01T11:22:01.526Z,10.40
2023-02-01T11:24:36.518Z,10.40
2023-02-01T11:27:07.246Z,10.40
2023-02-01T11:29:44.056Z,10.50
2023-02-01T11:32:17.669Z,10.60
2023-02-01T11:34:58.834Z,10.70
2023-02-01T11:37:39.131Z,10.80
2023-02-01T11:40:18.444Z,10.90
2023-02-01T11:42:55.403Z,11.00
2023-02-01T11:45:38.355Z,11.00
2023-02-01T11:48:26.176Z,11.10
2023-02-01T11:51:11.867Z,11.10
2023-02-01T11:54:19.554Z,11.20
2023-02-01T11:57:16.985Z,11.20
2023-02-01T12:00:02.385Z,11.30
2023-02-01T12:03:00.252Z,11.30
2023-02-01T12:05:36.566Z,11.30
2023-02-01T12:08:13.927Z,11.40
2023-02-01T12:10:53.386Z,11.40
2023-02-01T12:13:54.690Z,11.50
2023-02-01T12:16:49.891Z,11.50
2023-02-01T12:19:36.137Z,11.60
2023-02-01T12:22:33.987Z,11.70
2023-02-01T12:25:26.259Z,11.70
2023-02-01T12:28:02.499Z,11.70
2023-02-01T12:30:32.636Z,11.80
2023-02-01T12:33:41.838Z,11.80
2023-02-01T12:36:12.053Z,11.70
2023-02-01T12:39:07.069Z,11.80
2023-02-01T12:41:58.825Z,11.70
2023-02-01T12:45:06.640Z,11.70
2023-02-01T12:47:42.476Z,11.70
2023-02-01T12:50:28.253Z,11.70
2023-02-01T12:53:21.586Z,11.70
2023-02-01T12:56:02.453Z,11.70
2023-02-01T12:58:46.779Z,11.80
2023-02-01T13:01:21.373Z,11.70
2023-02-01T13:03:58.807Z,11.80
2023-02-01T13:06:36.434Z,11.80
2023-02-01T13:09:31.445Z,11.80
2023-02-01T13:12:32.756Z,11.80
2023-02-01T13:15:05.159Z,11.80
2023-02-01T13:17:34.654Z,11.80
2023-02-01T13:20:14.939Z,11.80
2023-02-01T13:22:49.450Z,11.80
2023-02-01T13:25:39.125Z,11.70
2023-02-01T13:28:33.633Z,11.70
2023-02-01T13:31:29.596Z,11.70
2023-02-01T13:34:11.773Z,11.60
2023-02-01T13:36:54.373Z,11.60
2023-02-01T13:39:52.645Z,11.60
2023-02-01T13:42:30.026Z,11.50
2023-02-01T13:44:59.156Z,11.50
2023-02-01T13:47:44.951Z,11.40
2023-02-01T13:50:36.171Z,11.40
2023-02-01T13:53:12.102Z,11.30
2023-02-01T13:55:42.976Z,11.30
2023-02-01T13:58:42.906Z,11.30
2023-02-01T14:01:22.278Z,11.30
2023-02-01T14:03:53.527Z,11.20
2023-02-01T14:06:34.978Z,11.20
2023-02-01T14:09:14.495Z,11.20
2023-02-01T14:11:52.084Z,11.10
2023-02-01T14:14:19.309Z,11.10
2023-02-01T14:16:57.575Z,11.00
2023-02-01T14:19:32.611Z,10.90
2023-02-01T14:22:15.925Z,10.90
2023-02-01T14:24:54.004Z,10.70
2023-02-01T14:27:28.101Z,10.70
2023-02-01T14:30:00.633Z,10.60
2023-02-01T14:32:42.074Z,10.50
2023-02-01T14:35:28.587Z,10.50
2023-02-01T14:38:03.607Z,10.50
2023-02-01T14:40:32.003Z,10.40
2023-02-01T14:43:01.917Z,10.40
2023-02-01T14:45:29.487Z,10.40
2023-02-01T14:48:16.780Z,10.40
2023-02-01T14:50:51.639Z,10.40
2023-02-01T14:53:25.708Z,10.40
2023-02-01T14:56:15.020Z,10.50
2023-02-01T14:58:59.398Z,10.50
2023-02-01T15:01:32.059Z,10.50
2023-02-01T15:04:09.705Z,10.50
2023-02-01T15:06:42.758Z,10.50
2023-02-01T15:09:15.651Z,10.50
2023-02-01T15:12:01.785Z,10.40
2023-02-01T15:14:34.936Z,10.40
2023-02-01T15:17:02.480Z,10.50
2023-02-01T15:19:33.925Z,10.40
2023-02-01T15:22:01.492Z,10.50
2023-02-01T15:24:33.732Z,10.50
2023-02-01T15:27:06.127Z,10.50
2023-02-01T15:29:34.471Z,10.40
2023-02-01T15:32:01.999Z,10.50
2023-02-01T15:34:50.605Z,10.50
2023-02-01T15:37:23.307Z,10.50
2023-02-01T15:40:13.076Z,10.50
2023-02-01T15:42:55.626Z,10.50
2023-02-01T15:45:33.016Z,10.50
2023-02-01T15:48:01.101Z,10.50
2023-02-01T15:50:34.813Z,10.50
2023-02-01T15:53:02.285Z,10.50
2023-02-01T15:55:42.098Z,10.50
2023-02-01T15:58:24.408Z,10.50
2023-02-01T16:01:00.832Z,10.50
2023-02-01T16:03:44.084Z,10.40
2023-02-01T16:06:27.910Z,10.40
2023-02-01T16:09:11.394Z,10.40
2023-02-01T16:12:00.295Z,10.40
2023-02-01T16:14:28.025Z,10.40
2023-02-01T16:16:58.692Z,10.40
2023-02-01T16:19:29.138Z,10.40
2023-02-01T16:21:59.907Z,10.40
2023-02-01T16:24:27.263Z,10.40
2023-02-01T16:26:57.501Z,10.30
2023-02-01T16:29:27.242Z,10.30
2023-02-01T16:31:54.568Z,10.30
2023-02-01T16:34:21.973Z,10.30
2023-02-01T16:36:52.974Z,10.30
2023-02-01T16:39:21.850Z,10.30
2023-02-01T16:41:49.299Z,10.30
2023-02-01T16:44:19.373Z,10.40
2023-02-01T16:46:49.749Z,10.30
2023-02-01T16:49:24.459Z,10.40
2023-02-01T16:51:56.351Z,10.30
2023-02-01T16:54:24.049Z,10.40
2023-02-01T16:56:51.521Z,10.40
2023-02-01T16:59:18.814Z,10.40
2023-02-01T17:01:48.483Z,10.40
2023-02-01T17:04:17.597Z,10.40
2023-02-01T17:06:48.205Z,10.40
2023-02-01T17:09:15.717Z,10.40
2023-02-01T17:11:42.973Z,10.40
2023-02-01T17:14:23.543Z,10.40
2023-02-01T17:16:54.639Z,10.40
2023-02-01T17:19:24.567Z,10.40
2023-02-01T17:21:56.589Z,10.40
2023-02-01T17:24:35.781Z,10.40
2023-02-01T17:27:04.621Z,10.40
2023-02-01T17:29:32.079Z,10.40
2023-02-01T17:32:03.901Z,10.40
2023-02-01T17:34:32.812Z,10.40
2023-02-01T17:37:00.099Z,10.40
2023-02-01T17:39:48.249Z,10.30
2023-02-01T17:42:17.967Z,10.30
2023-02-01T17:44:45.227Z,10.30
2023-02-01T17:47:12.736Z,10.30
2023-02-01T17:49:42.107Z,10.30
2023-02-01T17:52:16.529Z,10.30
2023-02-01T17:54:44.140Z,10.30
2023-02-01T17:57:17.017Z,10.30
2023-02-01T17:59:46.507Z,10.30
2023-02-01T18:02:23.056Z,10.30
2023-02-01T18:04:51.147Z,10.30
2023-02-01T18:07:21.092Z,10.30
2023-02-01T18:09:48.484Z,10.30
2023-02-01T18:12:25.534Z,10.30
2023-02-01T18:14:52.873Z,10.30
2023-02-01T18:17:20.169Z,10.30
2023-02-01T18:19:47.409Z,10.20
2023-02-01T18:22:18.292Z,10.30
2023-02-01T18:24:47.859Z,10.20
2023-02-01T18:27:17.566Z,10.20
2023-02-01T18:29:44.798Z,10.30
2023-02-01T18:32:12.067Z,10.20
2023-02-01T18:34:41.754Z,10.20
2023-02-01T18:37:14.111Z,10.20
2023-02-01T18:39:41.460Z,10.20
2023-02-01T18:42:11.152Z,10.20
2023-02-01T18:44:41.098Z,10.10
2023-02-01T18:47:08.456Z,10.20
2023-02-01T18:49:37.685Z,10.10
2023-02-01T18:52:06.571Z,10.10
2023-02-01T18:54:33.790Z,10.20
2023-02-01T18:57:03.515Z,10.20
2023-02-01T18:59:30.739Z,10.20
2023-02-01T19:01:57.970Z,10.20
2023-02-01T19:04:25.668Z,10.10
2023-02-01T19:06:53.453Z,10.10
2023-02-01T19:09:22.972Z,10.10
2023-02-01T19:11:52.354Z,10.10
2023-02-01T19:14:19.752Z,10.10
2023-02-01T19:16:49.833Z,10.10
2023-02-01T19:19:17.047Z,10.20
2023-02-01T19:21:44.297Z,10.20
2023-02-01T19:24:11.592Z,10.20
2023-02-01T19:26:41.465Z,10.10
2023-02-01T19:29:08.755Z,10.10
2023-02-01T19:31:36.199Z,10.10
2023-02-01T19:34:04.072Z,10.10
2023-02-01T19:36:33.560Z,10.10
2023-02-01T19:39:00.840Z,10.10
2023-02-01T19:41:28.106Z,10.10
2023-02-01T19:43:55.583Z,10.10
2023-02-01T19:46:23.001Z,10.10
2023-02-01T19:48:50.377Z,10.10
2023-02-01T19:51:17.973Z,10.10
2023-02-01T19:53:45.228Z,10.10
2023-02-01T19:56:12.546Z,10.10
2023-02-01T19:58:42.432Z,10.10
2023-02-01T20:01:08.841Z,10.10
2023-02-01T20:03:36.206Z,10.10
2023-02-01T20:06:03.663Z,10.10
2023-02-01T20:08:33.556Z,10.10
2023-02-01T20:11:00.825Z,10.10
2023-02-01T20:13:28.218Z,10.10
2023-02-01T20:15:59.536Z,10.00
2023-02-01T20:18:27.870Z,10.10
2023-02-01T20:20:56.841Z,10.00
2023-02-01T20:23:25.015Z,10.00
2023-02-01T20:25:53.266Z,10.00
2023-02-01T20:28:20.508Z,10.00
2023-02-01T20:30:47.787Z,10.00
2023-02-01T20:33:15.864Z,10.00
2023-02-01T20:35:46.177Z,10.00
2023-02-01T20:38:15.730Z,9.90
2023-02-01T20:40:45.403Z,10.00
2023-02-01T20:43:12.893Z,9.90
2023-02-01T20:45:43.652Z,10.00
2023-02-01T20:48:12.161Z,9.90
2023-02-01T20:50:41.791Z,9.90
2023-02-01T20:53:17.059Z,9.90
2023-02-01T20:55:54.837Z,9.90
2023-02-01T20:58:22.558Z,9.90
2023-02-01T21:00:50.696Z,9.90
2023-02-01T21:03:19.093Z,9.90
2023-02-01T21:05:51.296Z,9.90
2023-02-01T21:08:21.535Z,9.90
2023-02-01T21:11:09.281Z,9.90
2023-02-01T21:13:43.039Z,9.90
2023-02-01T21:16:16.776Z,10.00
2023-02-01T21:18:44.290Z,10.00
2023-02-01T21:21:16.325Z,10.00
2023-02-01T21:23:46.716Z,10.00
2023-02-01T21:26:25.172Z,10.00
2023-02-01T21:28:56.916Z,10.00
2023-02-01T21:31:26.750Z,9.90
2023-02-01T21:33:54.049Z,10.00
2023-02-01T21:36:21.399Z,10.00
2023-02-01T21:38:52.640Z,10.00
2023-02-01T21:41:40.983Z,10.00
2023-02-01T21:44:14.504Z,10.00
2023-02-01T21:46:45.087Z,10.00
2023-02-01T21:49:13.058Z,10.00
2023-02-01T21:51:42.662Z,10.00
2023-02-01T21:54:11.311Z,10.00
2023-02-01T21:56:39.631Z,10.00
2023-02-01T21:59:07.830Z,10.00
2023-02-01T22:01:35.132Z,10.10
2023-02-01T22:04:07.144Z,10.00
2023-02-01T22:06:35.949Z,10.00
2023-02-01T22:09:03.990Z,10.00
2023-02-01T22:11:31.597Z,10.00
2023-02-01T22:13:59.495Z,10.00
2023-02-01T22:16:31.402Z,10.10
2023-02-01T22:18:58.859Z,10.10
2023-02-01T22:21:28.609Z,10.10
2023-02-01T22:23:58.924Z,10.10
2023-02-01T22:26:32.251Z,10.10
2023-02-01T22:28:59.534Z,10.10
2023-02-01T22:31:32.110Z,10.10
2023-02-01T22:34:01.974Z,10.20
2023-02-01T22:36:29.225Z,10.20
2023-02-01T22:38:58.868Z,10.20
2023-02-01T22:41:26.194Z,10.20
2023-02-01T22:43:55.893Z,10.20
2023-02-01T22:46:27.194Z,10.20
2023-02-01T22:48:54.783Z,10.20
2023-02-01T22:51:28.701Z,10.20
2023-02-01T22:53:59.298Z,10.20
2023-02-01T22:56:31.739Z,10.20
2023-02-01T22:59:05.207Z,10.20
2023-02-01T23:01:33.490Z,10.20
2023-02-01T23:04:03.032Z,10.20
2023-02-01T23:06:33.675Z,10.10
2023-02-01T23:09:25.138Z,10.20
2023-02-01T23:11:53.890Z,10.10
2023-02-01T23:14:23.691Z,10.20
2023-02-01T23:16:51.035Z,10.20
2023-02-01T23:19:20.479Z,10.20
2023-02-01T23:21:50.298Z,10.20
2023-02-01T23:24:17.665Z,10.10
2023-02-01T23:26:47.135Z,10.10
2023-02-01T23:29:18.142Z,10.10
2023-02-01T23:31:47.685Z,10.10
2023-02-01T23:34:20.735Z,10.00
2023-02-01T23:36:47.961Z,10.10
2023-02-01T23:39:15.221Z,10.00
2023-02-01T23:41:42.491Z,10.00
2023-02-01T23:44:10.108Z,10.00
2023-02-01T23:46:41.455Z,10.00
2023-02-01T23:49:09.461Z,10.00
2023-02-01T23:51:37.662Z,10.00
2023-02-01T23:54:05.644Z,10.00
2023-02-01T23:56:35.523Z,10.00
2023-02-01T23:59:05.479Z,9.90
